Time;durP1;ratioP1;P1;durP2;ratioP2;P2;SDS_P1;SDS_P2;PMS_P1;PMS_P2;Temp;Humidity;BMP_temperature;BMP_pressure;BME280_temperature;BME280_humidity;BME280_pressure;Samples;Min_cycle;Max_cycle;Signal;HPM_P1;HPM_P2
2023/04/27 00:02:57;;;;;;;14.40;6.50;;;;;;;3.27;83.73;100662.63;217858;1289;138769;-85
2023/04/27 00:07:58;;;;;;;13.60;6.20;;;;;;;3.34;84.22;100660.71;218417;1289;95900;-86
2023/04/27 00:12:58;;;;;;;15.80;6.90;;;;;;;3.39;84.26;100659.23;217855;1288;139581;-86
2023/04/27 00:18:00;;;;;;;15.90;8.00;;;;;;;3.44;84.57;100656.66;218382;1288;138829;-85
2023/04/27 00:23:00;;;;;;;15.30;7.00;;;;;;;3.49;84.54;100653.83;217793;1288;138903;-85
2023/04/27 00:28:01;;;;;;;16.70;7.70;;;;;;;3.54;84.44;100650.09;218283;1289;139358;-85
2023/04/27 00:33:01;;;;;;;15.10;6.60;;;;;;;3.60;84.80;100651.98;217823;1288;139000;-85
2023/04/27 00:38:02;;;;;;;22.20;7.80;;;;;;;3.64;84.76;100650.30;218414;1289;96633;-86
2023/04/27 00:43:03;;;;;;;18.80;7.10;;;;;;;3.70;85.14;100650.43;217804;1288;140504;-85
2023/04/27 00:48:04;;;;;;;15.10;7.30;;;;;;;3.75;84.72;100657.34;218363;1289;138887;-85
2023/04/27 00:53:06;;;;;;;13.60;7.00;;;;;;;3.81;85.18;100653.85;217802;1289;138829;-86
2023/04/27 00:58:07;;;;;;;17.30;6.40;;;;;;;3.86;85.32;100655.33;218375;1288;138809;-86
2023/04/27 01:03:08;;;;;;;14.20;6.00;;;;;;;3.92;84.99;100662.04;217700;1288;139141;-86
2023/04/27 01:08:09;;;;;;;14.60;6.20;;;;;;;3.99;84.93;100657.56;218299;1291;95982;-86
2023/04/27 01:13:09;;;;;;;11.60;5.70;;;;;;;4.05;84.77;100661.55;217808;1289;139119;-86
2023/04/27 01:18:10;;;;;;;13.70;6.40;;;;;;;4.11;85.14;100665.05;218384;1288;138660;-86
2023/04/27 01:23:14;;;;;;;20.10;6.50;;;;;;;4.16;85.76;100661.54;217870;1288;139094;-86
2023/04/27 01:28:15;;;;;;;14.90;5.70;;;;;;;4.22;85.39;100661.91;218291;1290;138739;-85
2023/04/27 01:33:15;;;;;;;14.70;6.10;;;;;;;4.27;85.21;100666.34;217724;1288;139430;-86
2023/04/27 01:38:16;;;;;;;14.40;5.80;;;;;;;4.33;85.28;100662.60;218445;1289;96011;-86
2023/04/27 01:43:16;;;;;;;16.00;6.40;;;;;;;4.38;85.10;100669.33;217856;1289;138651;-86
2023/04/27 01:48:16;;;;;;;16.30;6.90;;;;;;;4.42;85.25;100669.59;218469;1288;138674;-86
2023/04/27 01:53:17;;;;;;;12.30;5.60;;;;;;;4.46;85.47;100672.33;217888;1289;139111;-85
2023/04/27 01:58:17;;;;;;;14.50;5.90;;;;;;;4.50;85.37;100677.97;218374;1290;138678;-86
2023/04/27 02:03:18;;;;;;;12.70;5.90;;;;;;;4.52;85.43;100675.67;217840;1287;139167;-84
2023/04/27 02:08:18;;;;;;;12.50;5.80;;;;;;;4.55;85.10;100677.48;218380;1288;96749;-85
2023/04/27 02:13:18;;;;;;;14.90;6.20;;;;;;;4.60;84.89;100681.40;217884;1289;138582;-85
2023/04/27 02:18:19;;;;;;;15.10;6.80;;;;;;;4.64;85.15;100682.91;218390;1288;138676;-85
2023/04/27 02:23:19;;;;;;;14.90;6.20;;;;;;;4.67;85.03;100685.75;217641;1288;139313;-85
2023/04/27 02:28:20;;;;;;;14.20;5.70;;;;;;;4.69;85.40;100687.95;218383;1288;139037;-85
2023/04/27 02:33:20;;;;;;;16.70;6.10;;;;;;;4.70;85.12;100692.26;217862;1288;139560;-86
2023/04/27 02:38:21;;;;;;;11.80;6.00;;;;;;;4.71;85.24;100693.35;218506;1289;96040;-86
2023/04/27 02:43:22;;;;;;;14.50;6.80;;;;;;;4.70;84.97;100691.14;217847;1288;138480;-86
2023/04/27 02:48:22;;;;;;;13.40;6.30;;;;;;;4.69;84.98;100692.82;218407;1288;139073;-85
2023/04/27 02:53:23;;;;;;;15.80;6.50;;;;;;;4.66;85.20;100694.57;217866;1289;139494;-85
2023/04/27 02:58:23;;;;;;;13.20;6.10;;;;;;;4.65;85.34;100698.74;218322;1289;138947;-85
2023/04/27 03:03:24;;;;;;;14.10;5.40;;;;;;;4.61;85.25;100702.48;217840;1289;139032;-85
2023/04/27 03:08:24;;;;;;;18.00;7.20;;;;;;;4.60;85.30;100708.60;218474;1290;111606;-86
2023/04/27 03:13:25;;;;;;;13.00;6.50;;;;;;;4.59;85.23;100712.54;217842;1290;139156;-86
2023/04/27 03:18:25;;;;;;;16.30;6.40;;;;;;;4.59;85.23;100717.73;218240;1289;138584;-86
2023/04/27 03:23:26;;;;;;;19.00;7.20;;;;;;;4.55;85.77;100716.80;217684;1288;139975;-84
2023/04/27 03:28:26;;;;;;;14.10;7.10;;;;;;;4.52;85.82;100724.16;218353;1289;140346;-85
2023/04/27 03:33:27;;;;;;;16.50;7.60;;;;;;;4.53;85.60;100731.98;217812;1288;138722;-85
2023/04/27 03:38:27;;;;;;;13.40;6.60;;;;;;;4.51;86.05;100733.71;218483;1288;96200;-86
2023/04/27 03:43:29;;;;;;;12.80;6.20;;;;;;;4.49;86.44;100733.31;217856;1289;138857;-85
2023/04/27 03:48:29;;;;;;;15.50;7.30;;;;;;;4.47;86.50;100737.50;218286;1291;138775;-85
2023/04/27 03:53:30;;;;;;;16.30;6.60;;;;;;;4.46;86.61;100740.28;217841;1288;139870;-85
2023/04/27 03:58:30;;;;;;;13.60;7.30;;;;;;;4.46;86.73;100739.03;218237;1288;138837;-86
2023/04/27 04:03:31;;;;;;;14.60;6.60;;;;;;;4.45;87.33;100742.12;217795;1289;139755;-85
2023/04/27 04:08:33;;;;;;;16.50;7.30;;;;;;;4.45;87.83;100745.37;218430;1289;96165;-85
2023/04/27 04:13:34;;;;;;;14.70;6.80;;;;;;;4.45;87.79;100751.16;217852;1288;139601;-86
2023/04/27 04:18:35;;;;;;;14.50;6.80;;;;;;;4.48;87.85;100758.71;218063;1289;311704;-85
2023/04/27 04:23:36;;;;;;;12.50;6.10;;;;;;;4.49;88.06;100761.18;217774;1288;138824;-85
2023/04/27 04:28:37;;;;;;;13.80;7.00;;;;;;;4.51;88.21;100762.66;218347;1288;139246;-85
2023/04/27 04:33:37;;;;;;;15.50;6.60;;;;;;;4.54;88.01;100760.31;217812;1291;138887;-85
2023/04/27 04:38:38;;;;;;;18.60;8.10;;;;;;;4.60;88.05;100763.42;218409;1290;96821;-86
2023/04/27 04:43:38;;;;;;;19.70;8.50;;;;;;;4.66;88.27;100770.04;217928;1288;138898;-86
2023/04/27 04:48:40;;;;;;;18.00;7.40;;;;;;;4.73;88.49;100769.80;218392;1288;138505;-86
2023/04/27 04:53:40;;;;;;;20.30;7.70;;;;;;;4.83;89.01;100770.90;217834;1288;140083;-85
2023/04/27 04:58:41;;;;;;;15.60;6.90;;;;;;;4.96;88.83;100777.23;218387;1289;138799;-85
2023/04/27 05:03:41;;;;;;;16.00;6.50;;;;;;;5.10;88.82;100775.44;217677;1289;139217;-86
2023/04/27 05:08:42;;;;;;;13.00;6.30;;;;;;;5.26;89.20;100774.10;218386;1288;96052;-86
2023/04/27 05:13:42;;;;;;;11.90;5.90;;;;;;;5.43;89.66;100782.23;217832;1288;138500;-86
2023/04/27 05:18:42;;;;;;;12.10;5.60;;;;;;;5.61;89.23;100785.80;218378;1288;138661;-86
2023/04/27 05:23:43;;;;;;;13.10;5.60;;;;;;;5.76;88.74;100790.73;217694;1288;139713;-86
2023/04/27 05:28:45;;;;;;;12.00;5.20;;;;;;;5.92;88.59;100799.05;218281;1289;138953;-84
2023/04/27 05:33:46;;;;;;;10.20;4.70;;;;;;;6.07;87.96;100804.42;217811;1291;139273;-84
2023/04/27 05:38:46;;;;;;;11.70;5.40;;;;;;;6.21;87.89;100813.80;218539;1288;96797;-83
2023/04/27 05:43:47;;;;;;;11.00;4.90;;;;;;;6.34;87.38;100814.19;217776;1288;138596;-85
2023/04/27 05:48:47;;;;;;;11.60;5.10;;;;;;;6.50;87.23;100809.02;218296;1291;139015;-83
2023/04/27 05:53:48;;;;;;;9.60;4.20;;;;;;;6.66;86.08;100816.20;217820;1291;139314;-84
2023/04/27 05:58:48;;;;;;;12.60;4.40;;;;;;;6.79;85.20;100818.80;218344;1291;138676;-84
2023/04/27 06:03:49;;;;;;;10.80;3.90;;;;;;;6.91;85.15;100827.70;217814;1288;138916;-84
2023/04/27 06:08:49;;;;;;;11.10;4.60;;;;;;;7.07;85.29;100826.89;218301;1291;96151;-85
2023/04/27 06:13:50;;;;;;;9.60;4.30;;;;;;;7.22;84.83;100828.01;217838;1288;138827;-84
2023/04/27 06:18:51;;;;;;;10.30;3.80;;;;;;;7.42;84.75;100824.61;218173;1288;139265;-84
2023/04/27 06:23:51;;;;;;;13.30;4.50;;;;;;;7.64;83.98;100825.66;217823;1288;139500;-84
2023/04/27 06:28:52;;;;;;;17.90;4.80;;;;;;;7.82;82.54;100828.44;218395;1288;138788;-84
2023/04/27 06:33:52;;;;;;;9.50;4.00;;;;;;;7.93;81.19;100835.74;217837;1291;139748;-86
2023/04/27 06:38:55;;;;;;;10.00;4.60;;;;;;;8.07;81.62;100839.55;218493;1291;97193;-85
2023/04/27 06:43:56;;;;;;;13.00;4.80;;;;;;;8.26;81.21;100837.73;218006;1289;139275;-84
2023/04/27 06:48:56;;;;;;;12.30;4.90;;;;;;;8.46;81.07;100834.92;217646;1289;139397;-83
2023/04/27 06:53:56;;;;;;;12.80;4.60;;;;;;;8.66;80.24;100831.91;218333;1288;138766;-85
2023/04/27 06:58:57;;;;;;;11.40;4.60;;;;;;;8.82;78.97;100832.54;217854;1289;140005;-86
2023/04/27 07:03:58;;;;;;;13.10;4.80;;;;;;;8.97;77.89;100831.02;218385;1291;138753;-85
2023/04/27 07:08:58;;;;;;;9.50;4.10;;;;;;;9.08;76.74;100827.14;217876;1289;139752;-85
2023/04/27 07:13:59;;;;;;;8.80;4.20;;;;;;;9.22;77.46;100824.73;218423;1289;96631;-84
2023/04/27 07:19:00;;;;;;;11.10;3.80;;;;;;;9.44;76.30;100826.45;217847;1288;139925;-85
2023/04/27 07:24:00;;;;;;;8.90;3.60;;;;;;;9.70;76.09;100824.44;218252;1288;140163;-87
2023/04/27 07:29:00;;;;;;;10.50;4.00;;;;;;;9.94;75.20;100830.26;217763;1290;139614;-85
2023/04/27 07:34:01;;;;;;;12.40;3.40;;;;;;;10.06;72.02;100824.58;218388;1288;139612;-85
2023/04/27 07:39:03;;;;;;;7.90;3.20;;;;;;;10.08;70.73;100824.60;217781;1291;140501;-85
2023/04/27 07:44:04;;;;;;;8.80;2.70;;;;;;;10.14;70.75;100825.43;218376;1288;96184;-85
2023/04/27 07:49:04;;;;;;;9.20;3.40;;;;;;;10.23;70.39;100826.30;217723;1289;139192;-86
2023/04/27 07:54:05;;;;;;;12.80;3.30;;;;;;;10.29;69.67;100826.19;218293;1289;139233;-85
2023/04/27 07:59:05;;;;;;;7.60;2.30;;;;;;;10.39;67.15;100835.01;217853;1289;140555;-85
2023/04/27 08:04:06;;;;;;;7.40;2.80;;;;;;;10.32;65.54;100836.77;218271;1292;138289;-86
2023/04/27 08:09:06;;;;;;;9.40;2.70;;;;;;;10.34;67.17;100831.08;217923;1289;138469;-86
2023/04/27 08:14:12;;;;;;;9.10;2.90;;;;;;;10.53;65.33;100836.11;218460;1289;95979;-86
2023/04/27 08:19:12;;;;;;;9.20;3.30;;;;;;;10.87;67.09;100835.05;217827;1289;139245;-85
2023/04/27 08:24:13;;;;;;;7.30;2.60;;;;;;;11.36;64.14;100840.46;218422;1289;138904;-85
2023/04/27 08:29:13;;;;;;;7.90;3.00;;;;;;;11.86;62.94;100836.27;217579;1293;139599;-86
2023/04/27 08:34:13;;;;;;;5.50;2.20;;;;;;;12.37;60.58;100844.18;218165;1289;139474;-84
2023/04/27 08:39:14;;;;;;;7.00;2.40;;;;;;;13.03;60.39;100840.63;217736;1290;138261;-85
2023/04/27 08:44:14;;;;;;;4.60;2.20;;;;;;;13.64;58.56;100841.67;218226;1291;97233;-85
2023/04/27 08:49:15;;;;;;;5.80;2.50;;;;;;;14.16;56.50;100832.25;217607;1292;139300;-84
2023/04/27 08:54:15;;;;;;;7.30;2.70;;;;;;;14.56;56.11;100832.75;218341;1288;138210;-85
2023/04/27 08:59:16;;;;;;;7.20;2.30;;;;;;;15.17;55.87;100841.00;217648;1289;139308;-87
2023/04/27 09:04:17;;;;;;;5.20;2.10;;;;;;;15.59;53.04;100841.27;218179;1292;138302;-85
2023/04/27 09:09:22;;;;;;;17.80;2.90;;;;;;;16.05;53.79;100835.77;217852;1289;138384;-85
2023/04/27 09:14:23;;;;;;;4.40;2.30;;;;;;;16.77;52.36;100835.38;218310;1291;108571;-86
2023/04/27 09:19:28;;;;;;;11.20;2.70;;;;;;;17.35;48.68;100832.02;217836;1289;138633;-85
2023/04/27 09:24:29;;;;;;;6.40;2.00;;;;;;;17.54;48.08;100831.74;218254;1288;138307;-87
2023/04/27 09:29:34;;;;;;;8.40;1.90;;;;;;;17.77;45.79;100828.61;217759;1292;138703;-85
2023/04/27 09:34:41;;;;;;;9.90;2.40;;;;;;;17.95;43.80;100827.13;218257;1290;138191;-86
2023/04/27 09:39:42;;;;;;;6.30;2.10;;;;;;;17.98;44.49;100816.83;217706;1291;138460;-86
2023/04/27 09:44:42;;;;;;;6.50;2.20;;;;;;;18.19;43.04;100817.19;218489;1289;95912;-84
2023/04/27 09:49:42;;;;;;;4.70;2.00;;;;;;;18.64;45.47;100818.05;217870;1289;139971;-85
2023/04/27 09:54:44;;;;;;;6.60;2.00;;;;;;;19.25;44.02;100816.33;218410;1288;138310;-85
2023/04/27 09:59:57;;;;;;;6.70;2.00;;;;;;;19.24;40.36;100821.04;217854;1291;138491;-86
2023/04/27 10:05:12;;;;;;;4.70;1.80;;;;;;;18.61;42.10;100819.85;218317;1290;138278;-87
2023/04/27 10:10:19;;;;;;;5.10;1.60;;;;;;;18.32;42.38;100822.50;217819;1289;138304;-86
2023/04/27 10:15:26;;;;;;;4.20;1.70;;;;;;;18.16;41.92;100818.98;218199;1294;138697;-86
2023/04/27 10:20:35;;;;;;;5.70;1.90;;;;;;;17.83;42.27;100821.78;217888;1292;138498;-86
2023/04/27 10:25:38;;;;;;;6.50;2.30;;;;;;;17.62;42.82;100824.42;218333;1289;138424;-87
2023/04/27 10:30:44;;;;;;;10.50;6.10;;;;;;;17.66;43.29;100824.45;217681;1292;138915;-88
2023/04/27 10:35:53;;;;;;;6.40;2.50;;;;;;;17.44;43.09;100830.41;218193;1289;138600;-87
2023/04/27 10:40:56;;;;;;;4.90;1.70;;;;;;;17.16;43.20;100836.39;217595;1289;139476;-88
2023/04/27 10:46:13;;;;;;;8.40;1.90;;;;;;;16.96;43.63;100837.77;218356;1292;138438;-87
2023/04/27 10:51:15;;;;;;;7.50;1.90;;;;;;;16.68;42.95;100840.98;217798;1289;139377;-88
2023/04/27 10:56:17;;;;;;;3.90;1.80;;;;;;;16.26;42.73;100839.34;218525;1289;96147;-89
2023/04/27 11:01:25;;;;;;;4.40;1.60;;;;;;;15.95;43.89;100839.71;217852;1289;138736;-87
2023/04/27 11:06:27;;;;;;;3.20;1.40;;;;;;;15.82;44.11;100841.20;218175;1288;138722;-87
2023/04/27 11:11:28;;;;;;;5.90;1.40;;;;;;;15.71;44.38;100838.70;217697;1289;138859;-90
2023/04/27 11:16:31;;;;;;;5.00;1.70;;;;;;;15.70;43.42;100837.99;218386;1289;139004;-89
2023/04/27 11:21:32;;;;;;;7.90;1.70;;;;;;;15.58;43.25;100843.96;217558;1289;139223;-87
2023/04/27 11:26:32;;;;;;;4.60;1.60;;;;;;;15.28;42.95;100851.70;218430;1288;96664;-88
2023/04/27 11:31:42;;;;;;;5.80;1.60;;;;;;;15.04;43.49;100853.69;217874;1289;138326;-88
2023/04/27 11:36:42;;;;;;;5.20;1.60;;;;;;;14.89;43.77;100859.39;218262;1289;137993;-88
2023/04/27 11:41:45;;;;;;;4.50;1.80;;;;;;;14.76;44.04;100861.20;217718;1289;138863;-88
2023/04/27 11:46:46;;;;;;;6.30;1.70;;;;;;;14.62;43.77;100857.30;218359;1289;138308;-88
2023/04/27 11:51:47;;;;;;;7.40;1.90;;;;;;;14.54;44.39;100860.30;217719;1289;139139;-88
2023/04/27 11:56:47;;;;;;;3.00;1.80;;;;;;;14.64;44.14;100859.05;218443;1288;111940;-87
2023/04/27 12:01:50;;;;;;;5.80;2.10;;;;;;;14.73;43.52;100861.98;217781;1289;138622;-89
2023/04/27 12:06:50;;;;;;;2.70;1.60;;;;;;;14.66;42.89;100862.23;218382;1289;138041;-87
2023/04/27 12:11:53;;;;;;;4.70;1.80;;;;;;;14.65;43.51;100859.83;217683;1288;138610;-86
2023/04/27 12:16:54;;;;;;;5.40;1.80;;;;;;;14.75;41.88;100860.32;218359;1289;138236;-88
2023/04/27 12:21:54;;;;;;;3.60;1.60;;;;;;;14.84;43.50;100863.17;217835;1288;139268;-88
2023/04/27 12:26:55;;;;;;;5.10;2.00;;;;;;;15.08;43.99;100858.20;218401;1287;138322;-88
2023/04/27 12:31:56;;;;;;;8.60;2.70;;;;;;;15.36;44.10;100858.35;217966;1288;139050;-87
2023/04/27 12:36:56;;;;;;;6.20;1.80;;;;;;;15.49;43.56;100859.05;218465;1288;139274;-88
2023/04/27 12:41:59;;;;;;;5.00;1.80;;;;;;;15.62;43.24;100854.75;217672;1288;139145;-87
2023/04/27 12:47:01;;;;;;;5.10;2.00;;;;;;;15.60;42.43;100860.22;218301;1289;140056;-87
2023/04/27 12:52:01;;;;;;;4.60;1.70;;;;;;;15.46;42.14;100858.82;217826;1291;152062;-87
2023/04/27 12:57:05;;;;;;;6.10;2.00;;;;;;;15.42;41.85;100863.66;218277;1289;139589;-87
2023/04/27 13:02:06;;;;;;;7.00;2.50;;;;;;;15.24;42.36;100867.54;217756;1288;139393;-86
2023/04/27 13:07:06;;;;;;;6.80;1.70;;;;;;;15.12;42.69;100871.83;218321;1288;138009;-86
2023/04/27 13:12:07;;;;;;;5.30;2.00;;;;;;;15.16;43.49;100869.77;217680;1288;139794;-85
2023/04/27 13:17:07;;;;;;;5.30;1.80;;;;;;;15.36;43.05;100871.50;218241;1288;139125;-85
2023/04/27 13:22:09;;;;;;;5.60;1.90;;;;;;;15.25;41.27;100873.02;217778;1288;139569;-86
2023/04/27 13:27:09;;;;;;;6.40;1.70;;;;;;;15.01;41.06;100872.39;218236;1289;138857;-86
2023/04/27 13:32:10;;;;;;;7.70;2.10;;;;;;;14.67;40.97;100879.00;217785;1289;139141;-87
2023/04/27 13:37:10;;;;;;;6.30;1.90;;;;;;;14.46;41.34;100880.14;218326;1288;138350;-83
2023/04/27 13:42:11;;;;;;;8.50;2.30;;;;;;;14.39;42.48;100879.95;217807;1289;138999;-84
2023/04/27 13:47:11;;;;;;;7.00;2.00;;;;;;;14.36;42.26;100885.10;218278;1289;138435;-84
2023/04/27 13:52:12;;;;;;;9.50;1.80;;;;;;;14.02;40.02;100890.63;217793;1288;139756;-85
2023/04/27 13:57:13;;;;;;;4.30;1.70;;;;;;;13.62;40.59;100891.52;218261;1288;138152;-86
2023/04/27 14:02:13;;;;;;;5.30;1.40;;;;;;;13.43;41.17;100895.04;217948;1288;138351;-85
2023/04/27 14:07:14;;;;;;;5.00;1.80;;;;;;;13.33;42.38;100897.17;218344;1288;138137;-86
2023/04/27 14:12:14;;;;;;;5.70;1.70;;;;;;;13.25;42.54;100898.86;217746;1289;138540;-86
2023/04/27 14:17:15;;;;;;;3.90;2.00;;;;;;;13.17;43.86;100896.83;218319;1289;138299;-86
2023/04/27 14:22:15;;;;;;;4.10;1.90;;;;;;;13.18;44.62;100889.00;217839;1288;139442;-85
2023/04/27 14:27:16;;;;;;;7.20;1.80;;;;;;;13.11;43.88;100894.79;218380;1288;138156;-85
2023/04/27 14:32:16;;;;;;;3.50;1.60;;;;;;;13.08;44.39;100898.64;217935;1288;137890;-86
2023/04/27 14:37:17;;;;;;;4.70;2.00;;;;;;;13.01;44.03;100897.08;218347;1288;138315;-85
2023/04/27 14:42:17;;;;;;;4.50;2.00;;;;;;;13.00;44.71;100898.02;217763;1288;139147;-85
2023/04/27 14:47:18;;;;;;;4.90;2.00;;;;;;;12.99;44.49;100896.19;218193;1288;138138;-84
2023/04/27 14:52:18;;;;;;;10.40;2.40;;;;;;;12.90;44.01;100893.32;217811;1288;138608;-85
2023/04/27 14:57:19;;;;;;;5.70;2.00;;;;;;;12.78;44.89;100900.70;218273;1288;139526;-85
2023/04/27 15:02:20;;;;;;;5.20;1.80;;;;;;;12.82;44.60;100897.96;217808;1288;139675;-84
2023/04/27 15:07:20;;;;;;;7.10;1.90;;;;;;;12.78;44.94;100901.09;218345;1288;138140;-85
2023/04/27 15:12:21;;;;;;;4.70;1.80;;;;;;;12.65;43.57;100898.74;217607;1288;138558;-85
2023/04/27 15:17:22;;;;;;;7.40;2.70;;;;;;;12.45;44.49;100903.27;218330;1289;138574;-86
2023/04/27 15:22:23;;;;;;;4.80;1.70;;;;;;;12.35;45.36;100905.61;217819;1289;138386;-86
2023/04/27 15:27:25;;;;;;;16.90;6.60;;;;;;;12.34;45.50;100907.09;218306;1289;139251;-86
2023/04/27 15:32:28;;;;;;;5.90;2.20;;;;;;;12.36;46.32;100910.27;217746;1289;138257;-86
2023/04/27 15:37:29;;;;;;;5.70;2.00;;;;;;;12.41;47.43;100904.81;218305;1288;138009;-85
2023/04/27 15:42:29;;;;;;;3.70;1.50;;;;;;;12.46;47.98;100904.23;217742;1288;138435;-86
2023/04/27 15:47:30;;;;;;;4.50;1.80;;;;;;;12.51;47.93;100906.27;218104;1289;138221;-87
2023/04/27 15:52:31;;;;;;;8.10;3.60;;;;;;;12.55;47.15;100908.52;217527;1289;138702;-86
2023/04/27 15:57:31;;;;;;;5.50;1.50;;;;;;;12.51;46.06;100904.84;218271;1291;139322;-86
2023/04/27 16:02:32;;;;;;;8.50;3.00;;;;;;;12.36;46.29;100900.73;217785;1288;138975;-85
2023/04/27 16:07:34;;;;;;;4.70;1.70;;;;;;;12.27;45.56;100906.61;218265;1289;139139;-86
2023/04/27 16:12:34;;;;;;;5.90;2.80;;;;;;;12.12;45.15;100905.10;217701;1290;138597;-87
2023/04/27 16:17:38;;;;;;;4.70;2.00;;;;;;;12.07;46.37;100906.77;217858;1289;284939;-86
2023/04/27 16:22:38;;;;;;;6.90;2.10;;;;;;;12.01;46.95;100899.67;217668;1290;138992;-85
2023/04/27 16:27:39;;;;;;;8.00;2.60;;;;;;;11.90;45.75;100898.90;218205;1289;138153;-85
2023/04/27 16:32:40;;;;;;;35.10;16.40;;;;;;;11.76;46.98;100899.50;217706;1289;138265;-85
2023/04/27 16:37:40;;;;;;;9.50;3.30;;;;;;;11.72;48.40;100899.05;218240;1289;138337;-86
2023/04/27 16:42:40;;;;;;;10.50;4.70;;;;;;;11.70;48.94;100900.34;217525;1289;138303;-87
2023/04/27 16:47:41;;;;;;;5.90;2.70;;;;;;;11.64;49.36;100897.37;218195;1290;138345;-86
2023/04/27 16:52:41;;;;;;;6.80;2.60;;;;;;;11.57;50.02;100900.86;217657;1291;138516;-85
2023/04/27 16:57:42;;;;;;;15.80;9.00;;;;;;;11.52;50.69;100905.19;218224;1290;138373;-85
2023/04/27 17:02:42;;;;;;;16.50;5.40;;;;;;;11.49;51.16;100898.69;217819;1289;139452;-85
2023/04/27 17:07:43;;;;;;;8.20;3.60;;;;;;;11.46;51.19;100901.09;218196;1290;138317;-85
2023/04/27 17:12:43;;;;;;;7.80;2.90;;;;;;;11.38;51.77;100905.30;217663;1289;138913;-84
2023/04/27 17:17:44;;;;;;;4.30;2.20;;;;;;;11.28;50.36;100905.06;218005;1289;139011;-85
2023/04/27 17:22:45;;;;;;;7.60;2.70;;;;;;;11.10;51.15;100909.25;217709;1290;139484;-84
2023/04/27 17:27:45;;;;;;;5.80;2.20;;;;;;;10.97;50.48;100908.00;218193;1289;138138;-86
2023/04/27 17:32:46;;;;;;;6.00;2.10;;;;;;;10.79;50.05;100901.23;217756;1290;139971;-85
2023/04/27 17:37:46;;;;;;;6.40;2.70;;;;;;;10.67;50.66;100904.96;218090;1289;138189;-85
2023/04/27 17:42:48;;;;;;;8.30;3.00;;;;;;;10.62;50.62;100904.69;217699;1290;138750;-85
2023/04/27 17:47:49;;;;;;;6.40;2.60;;;;;;;10.47;50.33;100905.21;218240;1289;140525;-84
2023/04/27 17:52:50;;;;;;;7.50;2.70;;;;;;;10.31;50.86;100904.29;217571;1290;138990;-85
2023/04/27 17:57:51;;;;;;;10.60;3.30;;;;;;;10.20;52.31;100904.84;218100;1289;140295;-85
2023/04/27 18:02:52;;;;;;;8.20;3.50;;;;;;;10.13;52.61;100908.39;217587;1291;139789;-84
2023/04/27 18:07:52;;;;;;;7.70;3.00;;;;;;;10.05;53.20;100917.16;218132;1290;137924;-85
2023/04/27 18:12:53;;;;;;;7.20;2.70;;;;;;;9.92;53.83;100920.63;217623;1288;138960;-85
2023/04/27 18:17:55;;;;;;;9.20;3.00;;;;;;;9.75;54.16;100925.60;218213;1288;138749;-84
2023/04/27 18:22:56;;;;;;;8.50;3.00;;;;;;;9.54;55.00;100925.77;217698;1288;138975;-84
2023/04/27 18:27:56;;;;;;;11.60;3.90;;;;;;;9.34;55.51;100934.65;218313;1288;138271;-84
2023/04/27 18:32:58;;;;;;;15.00;5.60;;;;;;;9.17;56.78;100936.24;217795;1289;138483;-84
2023/04/27 18:37:59;;;;;;;18.50;6.80;;;;;;;8.97;57.29;100937.05;218428;1289;96787;-83
2023/04/27 18:43:01;;;;;;;13.80;5.30;;;;;;;8.73;57.82;100940.52;217801;1288;138805;-84
2023/04/27 18:48:02;;;;;;;14.10;6.70;;;;;;;8.50;58.56;100944.83;218279;1288;138040;-84
2023/04/27 18:53:03;;;;;;;17.70;7.60;;;;;;;8.31;59.81;100950.80;217653;1288;139140;-85
2023/04/27 18:58:05;;;;;;;17.00;7.90;;;;;;;8.12;60.34;100957.98;218373;1289;138503;-85
2023/04/27 19:03:06;;;;;;;18.10;8.80;;;;;;;7.90;61.14;100961.85;217730;1290;138744;-85
2023/04/27 19:08:08;;;;;;;18.00;8.70;;;;;;;7.71;61.76;100963.15;218455;1288;95870;-85
2023/04/27 19:13:09;;;;;;;29.20;11.30;;;;;;;7.46;62.45;100968.23;217683;1291;137813;-85
2023/04/27 19:18:09;;;;;;;22.40;8.70;;;;;;;7.28;63.29;100974.11;218228;1294;138852;-83
2023/04/27 19:23:12;;;;;;;17.50;8.30;;;;;;;7.12;63.70;100977.19;217553;1290;138175;-83
2023/04/27 19:28:18;;;;;;;22.80;10.80;;;;;;;6.98;64.45;100976.96;218142;1290;138066;-84
2023/04/27 19:33:18;;;;;;;21.80;8.70;;;;;;;6.84;65.02;100978.25;217517;1289;140155;-84
2023/04/27 19:38:21;;;;;;;35.00;13.80;;;;;;;6.68;65.46;100984.19;218169;1290;96891;-82
2023/04/27 19:43:22;;;;;;;24.90;11.10;;;;;;;6.53;66.03;100984.98;217653;1290;138234;-82
2023/04/27 19:48:22;;;;;;;27.30;13.20;;;;;;;6.37;66.49;100987.36;218050;1290;139116;-83
2023/04/27 19:53:23;;;;;;;30.80;15.00;;;;;;;6.21;66.83;100994.55;217627;1289;138971;-82
2023/04/27 19:58:23;;;;;;;35.10;18.00;;;;;;;6.06;67.51;100992.10;218036;1289;138459;-83
2023/04/27 20:03:24;;;;;;;22.30;13.20;;;;;;;5.90;68.08;100996.81;217526;1290;139534;-84
2023/04/27 20:08:24;;;;;;;28.70;15.50;;;;;;;5.74;68.71;100992.20;218249;1289;96055;-85
2023/04/27 20:13:25;;;;;;;33.30;17.40;;;;;;;5.61;69.18;101001.98;217839;1288;138395;-83
2023/04/27 20:18:30;;;;;;;26.90;16.00;;;;;;;5.46;69.68;101001.91;218222;1289;138340;-81
2023/04/27 20:23:31;;;;;;;40.70;20.80;;;;;;;5.31;70.22;101002.73;217759;1288;138347;-81
2023/04/27 20:28:31;;;;;;;44.90;22.60;;;;;;;5.20;70.94;101002.98;218353;1288;138834;-81
2023/04/27 20:33:32;;;;;;;54.80;27.90;;;;;;;5.05;71.16;101005.95;217746;1288;138992;-81
2023/04/27 20:38:32;;;;;;;62.80;28.80;;;;;;;4.92;71.52;101011.19;218413;1288;96005;-83
2023/04/27 20:43:33;;;;;;;68.60;31.00;;;;;;;4.80;72.07;101009.48;217783;1288;138778;-83
2023/04/27 20:48:33;;;;;;;140.00;57.10;;;;;;;4.67;72.69;101011.73;218113;1288;140059;-82
2023/04/27 20:53:34;;;;;;;84.90;40.30;;;;;;;4.56;72.97;101009.52;217604;1289;140487;-82
2023/04/27 20:58:36;;;;;;;72.60;33.00;;;;;;;4.43;73.48;101010.41;218275;1289;141296;-82
2023/04/27 21:03:37;;;;;;;75.10;34.00;;;;;;;4.32;74.10;101006.41;217645;1288;139620;-83
2023/04/27 21:08:37;;;;;;;98.90;44.30;;;;;;;4.22;74.44;101003.63;218417;1289;96756;-82
2023/04/27 21:13:38;;;;;;;91.70;41.30;;;;;;;4.10;74.62;100997.41;217719;1288;138913;-82
2023/04/27 21:18:38;;;;;;;113.20;43.00;;;;;;;3.99;75.07;100995.70;218350;1288;138887;-83
2023/04/27 21:23:39;;;;;;;112.10;39.80;;;;;;;3.88;75.25;100998.86;217879;1289;138986;-82
2023/04/27 21:28:39;;;;;;;100.80;35.00;;;;;;;3.81;75.69;101001.63;218377;1288;139142;-82
2023/04/27 21:33:40;;;;;;;117.70;37.40;;;;;;;3.74;75.99;100998.27;217762;1289;139240;-82
2023/04/27 21:38:40;;;;;;;106.90;37.80;;;;;;;3.66;76.16;100997.48;218524;1289;96257;-82
2023/04/27 21:43:41;;;;;;;122.70;39.60;;;;;;;3.54;76.90;100999.89;217794;1290;139631;-82
2023/04/27 21:48:42;;;;;;;138.70;43.30;;;;;;;3.41;77.18;101006.15;218385;1288;139668;-82
2023/04/27 21:53:42;;;;;;;125.10;38.00;;;;;;;3.28;77.46;101009.72;217803;1288;139551;-82
2023/04/27 21:58:43;;;;;;;82.40;25.50;;;;;;;3.22;77.67;101008.19;218337;1289;138998;-86
2023/04/27 22:03:43;;;;;;;273.70;66.70;;;;;;;3.17;77.87;101011.41;217916;1288;138953;-85
2023/04/27 22:08:44;;;;;;;332.60;95.80;;;;;;;3.09;78.53;101010.54;218395;1289;96166;-85
2023/04/27 22:13:45;;;;;;;281.90;74.20;;;;;;;2.96;78.97;101013.55;217884;1290;139175;-85
2023/04/27 22:18:46;;;;;;;235.00;67.20;;;;;;;2.86;79.12;101011.09;218351;1291;138899;-85
2023/04/27 22:23:47;;;;;;;188.20;56.30;;;;;;;2.80;79.49;101007.98;217829;1288;139472;-84
2023/04/27 22:28:47;;;;;;;124.90;45.00;;;;;;;2.72;79.58;101007.33;218183;1291;139911;-85
2023/04/27 22:33:48;;;;;;;179.50;54.10;;;;;;;2.65;79.85;101007.55;217826;1291;139878;-85
2023/04/27 22:38:49;;;;;;;171.80;54.00;;;;;;;2.57;80.48;101005.92;218499;1291;96628;-85
2023/04/27 22:43:50;;;;;;;113.90;35.80;;;;;;;2.51;79.93;101007.80;217715;1288;139351;-84
2023/04/27 22:48:51;;;;;;;135.80;43.80;;;;;;;2.47;81.08;101002.92;218376;1289;139172;-86